Time;durP1;ratioP1;P1;durP2;ratioP2;P2;SDS_P1;SDS_P2;PMS_P1;PMS_P2;Temp;Humidity;BMP_temperature;BMP_pressure;BME280_temperature;BME280_humidity;BME280_pressure;Samples;Min_cycle;Max_cycle;Signal;HPM_P1;HPM_P2
2024/03/21 00:01:23;;;;;;;23.08;15.05;;;9.70;99.90;;;;;;5055301;28;20081;-76
2024/03/21 00:03:49;;;;;;;24.38;15.40;;;9.70;99.90;;;;;;5054305;28;20063;-76
2024/03/21 00:06:15;;;;;;;23.02;12.40;;;9.80;99.90;;;;;;5051842;28;20413;-76
2024/03/21 00:08:41;;;;;;;24.30;13.40;;;9.90;99.90;;;;;;5054424;28;20479;-76
2024/03/21 00:11:06;;;;;;;23.42;14.48;;;10.00;99.90;;;;;;5055287;28;20108;-76
2024/03/21 00:13:32;;;;;;;28.00;15.77;;;9.80;99.90;;;;;;5057071;28;20414;-76
2024/03/21 00:15:58;;;;;;;26.42;12.18;;;9.80;99.90;;;;;;5056037;28;20041;-77
2024/03/21 00:18:24;;;;;;;24.63;14.00;;;9.80;99.90;;;;;;5060241;28;20032;-76
2024/03/21 00:20:50;;;;;;;26.75;15.80;;;9.60;99.90;;;;;;5058602;28;20029;-79
2024/03/21 00:23:15;;;;;;;27.73;14.43;;;9.60;99.90;;;;;;5056828;28;20064;-79
2024/03/21 00:25:41;;;;;;;22.27;13.85;;;9.60;99.90;;;;;;5058608;28;20055;-78
2024/03/21 00:28:06;;;;;;;23.95;13.50;;;9.70;99.90;;;;;;5057217;28;20115;-79
2024/03/21 00:30:32;;;;;;;22.40;13.68;;;9.80;99.90;;;;;;5057953;28;20025;-79
2024/03/21 00:32:58;;;;;;;25.67;13.38;;;9.80;99.90;;;;;;5058111;28;20032;-79
2024/03/21 00:35:23;;;;;;;26.50;14.82;;;9.70;99.90;;;;;;5058576;28;20095;-79
2024/03/21 00:37:49;;;;;;;22.85;13.40;;;9.70;99.90;;;;;;5059982;28;20039;-79
2024/03/21 00:40:14;;;;;;;25.25;15.07;;;9.90;99.90;;;;;;5059359;28;20036;-79
2024/03/21 00:42:42;;;;;;;25.80;13.23;;;9.90;99.90;;;;;;5059862;28;20076;-79
2024/03/21 00:45:09;;;;;;;20.83;12.98;;;10.00;99.90;;;;;;5057572;28;20044;-76
2024/03/21 00:47:34;;;;;;;25.05;15.25;;;9.90;99.90;;;;;;5058574;28;20059;-76
2024/03/21 00:50:00;;;;;;;22.85;12.82;;;9.90;99.90;;;;;;5059092;28;20067;-77
2024/03/21 00:52:25;;;;;;;24.85;15.10;;;9.90;99.90;;;;;;5057504;28;20032;-76
2024/03/21 00:54:51;;;;;;;24.13;14.07;;;9.80;99.90;;;;;;5056306;28;20448;-76
2024/03/21 00:57:17;;;;;;;27.58;14.65;;;9.70;99.90;;;;;;5057545;28;20032;-76
2024/03/21 00:59:46;;;;;;;27.02;17.08;;;9.40;99.90;;;;;;5058761;28;20016;-76
2024/03/21 01:02:13;;;;;;;27.30;13.93;;;9.40;99.90;;;;;;5057499;28;20494;-76
2024/03/21 01:04:39;;;;;;;24.20;14.93;;;9.50;99.90;;;;;;5057266;28;20040;-76
2024/03/21 01:07:04;;;;;;;24.40;14.30;;;9.50;99.90;;;;;;5056062;28;20474;-76
2024/03/21 01:09:30;;;;;;;23.33;13.57;;;9.60;99.90;;;;;;5053004;28;20429;-76
2024/03/21 01:11:58;;;;;;;20.50;12.27;;;9.70;99.90;;;;;;5057955;28;20029;-77
2024/03/21 01:14:23;;;;;;;23.83;13.45;;;9.70;99.90;;;;;;5055572;28;20443;-77
2024/03/21 01:16:49;;;;;;;20.08;11.57;;;9.70;99.90;;;;;;5059258;28;20039;-76
2024/03/21 01:19:14;;;;;;;21.75;12.07;;;9.80;99.90;;;;;;5053530;28;20033;-76
2024/03/21 01:21:40;;;;;;;22.23;11.98;;;9.80;99.90;;;;;;5055818;28;20756;-76
2024/03/21 01:24:06;;;;;;;21.30;11.60;;;9.70;99.90;;;;;;5051497;28;20033;-76
2024/03/21 01:26:31;;;;;;;21.08;12.98;;;9.50;99.90;;;;;;5057125;28;20051;-76
2024/03/21 01:28:57;;;;;;;28.13;13.85;;;9.40;99.90;;;;;;5057493;28;20020;-76
2024/03/21 01:31:23;;;;;;;24.67;15.25;;;9.30;99.90;;;;;;5059001;28;20475;-76
2024/03/21 01:33:52;;;;;;;27.55;15.68;;;9.30;99.90;;;;;;5055597;28;20035;-76
2024/03/21 01:36:17;;;;;;;25.15;15.20;;;9.20;99.90;;;;;;5059440;28;20032;-77
2024/03/21 01:38:44;;;;;;;23.23;15.07;;;9.30;99.90;;;;;;5055093;28;20040;-76
2024/03/21 01:41:10;;;;;;;27.10;15.52;;;9.30;99.90;;;;;;5057586;28;20122;-76
2024/03/21 01:43:39;;;;;;;25.42;16.08;;;9.40;99.90;;;;;;5058538;28;20067;-77
2024/03/21 01:46:17;;;;;;;28.65;17.15;;;9.30;99.90;;;;;;5058643;28;20139;-76
2024/03/21 01:48:45;;;;;;;24.27;14.95;;;9.20;99.90;;;;;;5057493;28;20040;-76
2024/03/21 01:51:19;;;;;;;27.88;15.13;;;9.10;99.90;;;;;;5059081;28;20037;-76
2024/03/21 01:53:47;;;;;;;37.50;16.92;;;9.00;99.90;;;;;;5056227;28;20395;-77
2024/03/21 01:56:14;;;;;;;27.15;14.50;;;9.00;99.90;;;;;;5057597;28;20026;-76
2024/03/21 01:58:39;;;;;;;28.58;15.60;;;9.00;99.90;;;;;;5057043;28;20491;-76
2024/03/21 02:01:19;;;;;;;29.13;17.08;;;8.90;99.90;;;;;;5059016;28;20032;-77
2024/03/21 02:03:45;;;;;;;26.48;15.50;;;8.80;99.90;;;;;;5054863;28;20028;-76
2024/03/21 02:06:11;;;;;;;34.78;17.45;;;8.80;99.90;;;;;;5056058;28;20502;-76
2024/03/21 02:08:37;;;;;;;30.40;16.52;;;8.80;99.90;;;;;;5053619;28;20040;-76
2024/03/21 02:11:03;;;;;;;31.48;17.35;;;8.90;99.90;;;;;;5056733;28;20036;-76
2024/03/21 02:13:29;;;;;;;30.83;17.60;;;8.90;99.90;;;;;;5057095;28;20041;-76
2024/03/21 02:15:55;;;;;;;26.30;15.80;;;9.00;99.90;;;;;;5056269;28;20044;-76
2024/03/21 02:18:21;;;;;;;26.77;15.52;;;9.20;99.90;;;;;;5060348;28;20494;-76
2024/03/21 02:20:46;;;;;;;26.80;14.77;;;9.30;99.90;;;;;;5062069;28;20495;-76
2024/03/21 02:23:12;;;;;;;25.98;15.15;;;9.40;99.90;;;;;;5061267;28;20021;-76
2024/03/21 02:25:38;;;;;;;26.17;14.43;;;9.10;99.90;;;;;;5059890;28;20522;-76
2024/03/21 02:28:06;;;;;;;30.38;15.00;;;9.00;99.90;;;;;;5060048;28;20047;-76
2024/03/21 02:30:32;;;;;;;28.45;15.90;;;8.90;99.90;;;;;;5061888;28;20101;-76
2024/03/21 02:32:57;;;;;;;28.83;15.40;;;9.00;99.90;;;;;;5061086;28;21355;-76
2024/03/21 02:35:24;;;;;;;33.38;17.98;;;9.10;99.90;;;;;;5060759;28;20125;-76
2024/03/21 02:37:49;;;;;;;29.95;16.55;;;9.10;99.90;;;;;;5059985;28;20036;-76
2024/03/21 02:40:15;;;;;;;26.10;16.98;;;9.10;99.90;;;;;;5061992;28;20043;-77
2024/03/21 02:42:41;;;;;;;32.15;17.10;;;9.10;99.90;;;;;;5060588;28;20036;-76
2024/03/21 02:45:07;;;;;;;31.27;18.33;;;9.10;99.90;;;;;;5059875;28;20074;-77
2024/03/21 02:47:32;;;;;;;26.73;16.90;;;9.10;99.90;;;;;;5060446;28;20031;-76
2024/03/21 02:49:58;;;;;;;28.88;17.35;;;9.10;99.90;;;;;;5061002;28;20063;-76
2024/03/21 02:52:24;;;;;;;28.95;16.23;;;9.00;99.90;;;;;;5061291;28;20028;-76
2024/03/21 02:54:50;;;;;;;26.88;16.45;;;9.00;99.90;;;;;;5062021;28;20115;-76
2024/03/21 02:57:15;;;;;;;29.63;16.45;;;9.00;99.90;;;;;;5060617;28;20032;-76
2024/03/21 02:59:41;;;;;;;32.20;18.83;;;9.10;99.90;;;;;;5060560;28;20040;-76
2024/03/21 03:02:07;;;;;;;28.83;17.20;;;9.10;99.90;;;;;;5059297;28;20039;-76
2024/03/21 03:04:32;;;;;;;31.87;18.40;;;9.10;99.90;;;;;;5059648;28;20025;-76
2024/03/21 03:06:58;;;;;;;30.58;15.77;;;9.30;99.90;;;;;;5060315;28;20433;-76
2024/03/21 03:09:24;;;;;;;27.25;14.65;;;9.30;99.90;;;;;;5059254;28;20032;-76
2024/03/21 03:11:50;;;;;;;22.80;13.43;;;9.30;99.90;;;;;;5060252;28;20043;-76
2024/03/21 03:14:16;;;;;;;23.33;13.43;;;9.30;99.90;;;;;;5056271;28;20034;-79
2024/03/21 03:16:41;;;;;;;24.05;14.20;;;9.30;99.90;;;;;;5058557;28;20614;-79
2024/03/21 03:19:07;;;;;;;27.88;16.30;;;9.20;99.90;;;;;;5057169;28;20032;-79
2024/03/21 03:21:32;;;;;;;25.48;15.98;;;8.90;99.90;;;;;;5062391;28;20048;-79
2024/03/21 03:23:58;;;;;;;28.38;14.48;;;8.80;99.90;;;;;;5060703;28;20113;-79
2024/03/21 03:26:24;;;;;;;31.40;15.73;;;8.70;99.90;;;;;;5060669;28;20162;-79
2024/03/21 03:28:50;;;;;;;25.60;14.10;;;8.80;99.90;;;;;;5059753;28;20040;-79
2024/03/21 03:31:15;;;;;;;27.75;16.48;;;8.80;99.90;;;;;;5060059;28;20085;-79
2024/03/21 03:36:26;;;;;;;27.08;16.73;;;8.90;99.90;;;;;;5060747;28;20106;-79
2024/03/21 03:38:52;;;;;;;22.58;13.43;;;8.80;99.90;;;;;;5060513;28;20434;-79
2024/03/21 03:41:19;;;;;;;25.88;13.68;;;8.80;99.90;;;;;;5061054;28;20036;-79
2024/03/21 03:43:45;;;;;;;25.42;14.23;;;8.80;99.90;;;;;;5056440;28;20106;-79
2024/03/21 03:46:10;;;;;;;21.67;12.02;;;8.80;99.90;;;;;;5060548;28;20044;-79
2024/03/21 03:48:36;;;;;;;22.60;12.20;;;8.90;99.90;;;;;;5058436;28;20565;-79
2024/03/21 03:51:02;;;;;;;21.70;12.88;;;9.00;99.90;;;;;;5059761;28;20037;-78
2024/03/21 03:53:27;;;;;;;21.70;11.38;;;9.20;99.90;;;;;;5059880;28;20032;-79
2024/03/21 03:55:53;;;;;;;21.15;11.38;;;9.30;99.90;;;;;;5060139;28;20372;-79
2024/03/21 03:58:22;;;;;;;21.38;12.10;;;9.30;99.90;;;;;;5059597;28;20059;-79
2024/03/21 04:00:58;;;;;;;20.50;11.50;;;9.20;99.90;;;;;;5060315;28;20421;-78
2024/03/21 04:03:23;;;;;;;22.05;11.32;;;9.30;99.90;;;;;;5056569;28;20112;-79
2024/03/21 04:05:56;;;;;;;20.70;11.40;;;9.20;99.90;;;;;;5053812;28;20055;-79
2024/03/21 04:08:22;;;;;;;20.63;10.93;;;9.20;99.90;;;;;;5052242;28;20059;-79
2024/03/21 04:10:48;;;;;;;20.27;10.65;;;9.30;99.90;;;;;;5059126;28;20054;-79
2024/03/21 04:13:14;;;;;;;18.45;11.07;;;9.30;99.90;;;;;;5056431;28;20121;-79
2024/03/21 04:15:39;;;;;;;21.08;12.50;;;9.30;99.90;;;;;;5058379;28;20429;-79
2024/03/21 04:18:05;;;;;;;22.10;11.65;;;9.10;99.90;;;;;;5054700;28;20546;-80
2024/03/21 04:20:30;;;;;;;18.00;10.88;;;9.30;99.90;;;;;;5054147;28;20062;-80
2024/03/21 04:22:56;;;;;;;19.70;12.55;;;9.50;99.90;;;;;;5055108;28;20041;-79
2024/03/21 04:25:22;;;;;;;17.88;10.48;;;9.40;99.90;;;;;;5058005;28;20035;-79
2024/03/21 04:27:48;;;;;;;20.90;11.95;;;9.50;99.90;;;;;;5054617;28;20045;-79
2024/03/21 04:30:14;;;;;;;23.15;12.85;;;9.40;99.90;;;;;;5057838;28;20039;-80
2024/03/21 04:32:39;;;;;;;22.80;13.82;;;9.40;99.90;;;;;;5052755;28;20124;-80
2024/03/21 04:35:05;;;;;;;20.75;11.23;;;9.30;99.90;;;;;;5049669;28;20040;-79
2024/03/21 04:37:31;;;;;;;17.80;11.18;;;9.50;99.90;;;;;;5055801;28;20501;-79
2024/03/21 04:39:56;;;;;;;21.05;10.02;;;9.30;99.90;;;;;;5056151;28;20051;-78
2024/03/21 04:42:22;;;;;;;19.88;10.80;;;9.10;99.90;;;;;;5051581;28;20040;-80
2024/03/21 04:44:47;;;;;;;19.58;11.10;;;9.10;99.90;;;;;;5052507;28;20060;-78
2024/03/21 04:47:13;;;;;;;17.80;11.30;;;9.20;99.90;;;;;;5050959;28;21262;-77
2024/03/21 04:49:39;;;;;;;27.63;11.20;;;9.10;99.90;;;;;;5049958;28;20059;-79
2024/03/21 04:52:04;;;;;;;23.92;13.20;;;9.10;99.90;;;;;;5053521;28;20040;-78
2024/03/21 04:54:30;;;;;;;25.17;13.98;;;9.30;99.90;;;;;;5052568;28;20071;-78
2024/03/21 04:56:58;;;;;;;20.20;12.07;;;9.40;99.90;;;;;;5054676;28;20052;-78
2024/03/21 04:59:27;;;;;;;19.85;11.90;;;9.30;99.90;;;;;;5051201;28;20036;-78
2024/03/21 05:01:53;;;;;;;21.00;11.85;;;9.30;99.90;;;;;;5052837;28;20040;-78
2024/03/21 05:04:19;;;;;;;22.23;12.05;;;9.20;99.90;;;;;;5050855;28;20029;-78
2024/03/21 05:06:44;;;;;;;22.38;11.43;;;9.40;99.90;;;;;;5047567;28;20037;-78
2024/03/21 05:09:10;;;;;;;19.25;10.45;;;9.50;99.90;;;;;;5050642;28;20047;-80
2024/03/21 05:11:36;;;;;;;22.60;10.82;;;9.60;99.90;;;;;;5052612;28;20094;-78
2024/03/21 05:14:02;;;;;;;19.98;11.52;;;9.40;99.90;;;;;;5054679;28;20139;-78
2024/03/21 05:16:28;;;;;;;21.52;10.88;;;9.20;99.90;;;;;;5049711;28;20489;-78
2024/03/21 05:18:55;;;;;;;19.65;10.50;;;9.30;99.90;;;;;;5050822;28;20541;-79
2024/03/21 05:21:21;;;;;;;20.73;10.57;;;9.20;99.90;;;;;;5051308;28;20032;-78
2024/03/21 05:23:46;;;;;;;21.83;10.43;;;9.00;99.90;;;;;;5051906;28;20040;-79
2024/03/21 05:26:12;;;;;;;17.35;10.27;;;8.80;99.90;;;;;;5052166;28;20063;-78
2024/03/21 05:28:37;;;;;;;19.15;10.15;;;8.80;99.90;;;;;;5050797;28;20510;-78
2024/03/21 05:31:24;;;;;;;18.60;10.18;;;8.60;99.90;;;;;;5050348;28;20097;-78
2024/03/21 05:33:50;;;;;;;16.92;9.68;;;8.70;99.90;;;;;;5053635;28;20486;-78
2024/03/21 05:36:16;;;;;;;16.00;9.43;;;8.70;99.90;;;;;;5052622;28;20070;-78
2024/03/21 05:38:43;;;;;;;17.35;9.82;;;8.70;99.90;;;;;;5047987;28;20123;-78
2024/03/21 05:41:09;;;;;;;16.40;9.38;;;8.70;99.90;;;;;;5052817;28;20037;-78
2024/03/21 05:43:35;;;;;;;17.25;8.90;;;8.70;99.90;;;;;;5051991;28;20060;-78
2024/03/21 05:46:01;;;;;;;14.77;8.82;;;8.70;99.90;;;;;;5050905;28;20072;-78
2024/03/21 05:48:27;;;;;;;20.70;12.88;;;8.80;99.90;;;;;;5052615;28;20043;-77
2024/03/21 05:50:52;;;;;;;22.48;10.90;;;8.80;99.90;;;;;;5051074;28;20709;-78
2024/03/21 05:53:18;;;;;;;18.63;11.02;;;8.80;99.90;;;;;;5051593;28;20033;-78
2024/03/21 05:55:57;;;;;;;17.70;9.75;;;8.90;99.90;;;;;;5052148;28;20040;-78
2024/03/21 05:58:23;;;;;;;16.33;9.73;;;9.00;99.90;;;;;;5050225;28;20644;-80
2024/03/21 06:01:44;;;;;;;21.27;10.40;;;9.00;99.90;;;;;;5051897;28;20100;-79
2024/03/21 06:03:44;;;;;;;15.52;9.82;;;9.00;99.90;;;;;;5038397;28;20042;-78
2024/03/21 06:06:11;;;;;;;19.20;10.05;;;8.90;99.90;;;;;;5051311;28;20045;-79
2024/03/21 06:08:36;;;;;;;18.35;10.40;;;8.90;99.90;;;;;;5050050;28;20051;-78
2024/03/21 06:11:05;;;;;;;16.58;9.23;;;9.00;99.90;;;;;;5051786;28;20024;-78
2024/03/21 06:13:31;;;;;;;16.60;9.05;;;9.10;99.90;;;;;;5051655;28;20040;-80
2024/03/21 06:15:57;;;;;;;22.08;9.90;;;9.10;99.90;;;;;;5053694;28;20294;-78
2024/03/21 06:18:23;;;;;;;18.08;10.48;;;9.10;99.90;;;;;;5054630;28;20724;-78
2024/03/21 06:20:49;;;;;;;18.98;9.25;;;9.20;99.90;;;;;;5049214;28;20549;-77
2024/03/21 06:23:14;;;;;;;18.77;8.40;;;9.30;99.90;;;;;;5043785;28;20031;-77
2024/03/21 06:25:42;;;;;;;17.27;8.27;;;9.30;99.90;;;;;;5049680;28;20037;-77
2024/03/21 06:28:08;;;;;;;18.42;8.93;;;9.30;99.90;;;;;;5051982;28;20712;-77
2024/03/21 06:30:35;;;;;;;14.75;9.05;;;9.30;99.90;;;;;;5051030;28;20032;-77
2024/03/21 06:33:01;;;;;;;15.63;8.35;;;9.30;99.90;;;;;;5049177;28;20031;-77
2024/03/21 06:35:26;;;;;;;18.42;9.07;;;9.40;99.90;;;;;;5052280;28;20041;-78
2024/03/21 06:37:53;;;;;;;15.25;8.75;;;9.30;99.90;;;;;;5050819;28;20036;-76
2024/03/21 06:40:20;;;;;;;20.25;8.88;;;9.40;99.90;;;;;;5053405;28;20025;-79
2024/03/21 06:42:46;;;;;;;14.73;8.05;;;9.50;99.90;;;;;;5057915;28;20866;-77
2024/03/21 06:45:11;;;;;;;17.38;8.80;;;9.50;99.90;;;;;;5053858;28;20058;-77
2024/03/21 06:47:44;;;;;;;18.02;9.43;;;9.40;99.90;;;;;;5051003;28;20036;-80
2024/03/21 06:50:11;;;;;;;19.40;10.32;;;9.40;99.90;;;;;;5054107;28;20033;-79
2024/03/21 06:52:37;;;;;;;18.90;9.43;;;9.30;99.90;;;;;;5052459;28;20037;-79
2024/03/21 06:55:03;;;;;;;15.15;8.93;;;9.40;99.90;;;;;;5052025;28;20038;-79
2024/03/21 06:57:29;;;;;;;18.05;9.25;;;9.40;99.90;;;;;;5054821;28;20047;-80
2024/03/21 06:59:54;;;;;;;17.48;9.25;;;9.50;99.90;;;;;;5056816;28;20133;-79
2024/03/21 07:02:20;;;;;;;15.55;8.55;;;9.60;99.90;;;;;;5055147;28;20048;-81
2024/03/21 07:04:46;;;;;;;16.40;9.02;;;9.70;99.90;;;;;;5056143;28;20037;-80
2024/03/21 07:07:12;;;;;;;21.45;7.90;;;9.80;99.90;;;;;;5057080;28;20490;-79
2024/03/21 07:09:38;;;;;;;15.55;8.10;;;9.80;99.90;;;;;;5057816;28;20100;-80
2024/03/21 07:12:04;;;;;;;15.57;7.97;;;9.90;99.90;;;;;;5055198;28;20031;-80
2024/03/21 07:14:32;;;;;;;15.85;9.13;;;9.90;99.90;;;;;;5057264;28;20029;-81
2024/03/21 07:17:00;;;;;;;14.93;8.93;;;9.90;99.90;;;;;;5055785;28;20120;-80
2024/03/21 07:19:32;;;;;;;16.10;8.30;;;10.20;99.90;;;;;;5060898;28;20129;-81
2024/03/21 07:21:58;;;;;;;19.67;8.55;;;10.40;99.90;;;;;;5061696;28;20021;-79
2024/03/21 07:24:24;;;;;;;14.27;8.45;;;10.40;99.90;;;;;;5063429;28;20032;-79
2024/03/21 07:26:49;;;;;;;15.85;8.52;;;10.50;99.90;;;;;;5061449;28;20052;-80
2024/03/21 07:29:15;;;;;;;19.02;8.88;;;10.50;99.90;;;;;;5061196;28;20029;-81
2024/03/21 07:31:40;;;;;;;17.60;9.90;;;10.60;99.90;;;;;;5063889;28;20550;-79
2024/03/21 07:34:06;;;;;;;17.90;10.13;;;10.50;99.90;;;;;;5059825;28;20051;-80
2024/03/21 07:36:32;;;;;;;16.95;9.63;;;10.70;99.90;;;;;;5058045;28;20634;-80
2024/03/21 07:38:57;;;;;;;17.02;8.98;;;10.80;99.90;;;;;;5059458;28;20037;-80
2024/03/21 07:41:23;;;;;;;17.33;8.93;;;10.70;99.90;;;;;;5059446;28;20119;-79
2024/03/21 07:43:49;;;;;;;15.73;8.00;;;10.90;99.90;;;;;;5055277;28;20056;-80
2024/03/21 07:46:18;;;;;;;14.20;8.55;;;10.90;99.90;;;;;;5053586;28;20457;-79
2024/03/21 07:48:44;;;;;;;14.43;8.20;;;11.00;99.90;;;;;;5054767;28;20036;-79
2024/03/21 07:51:09;;;;;;;14.25;8.38;;;11.10;99.90;;;;;;5054153;28;20671;-80
2024/03/21 07:53:35;;;;;;;14.70;8.27;;;11.20;99.90;;;;;;5054729;28;20063;-79
2024/03/21 07:56:01;;;;;;;14.02;8.23;;;11.20;99.90;;;;;;5053664;28;20043;-79
2024/03/21 07:58:27;;;;;;;14.50;8.38;;;11.20;99.90;;;;;;5055779;28;20036;-79
2024/03/21 08:00:53;;;;;;;16.13;9.23;;;11.30;99.90;;;;;;5056605;28;20596;-79
2024/03/21 08:03:18;;;;;;;14.45;8.73;;;11.20;99.90;;;;;;5055997;28;20032;-79
2024/03/21 08:05:44;;;;;;;17.77;9.10;;;11.30;99.90;;;;;;5055409;28;20045;-80
2024/03/21 08:08:09;;;;;;;19.08;9.35;;;11.20;99.90;;;;;;5056959;28;20143;-80
2024/03/21 08:10:35;;;;;;;13.70;7.90;;;11.20;99.90;;;;;;5045496;28;20040;-79
2024/03/21 08:13:01;;;;;;;15.57;9.15;;;11.50;99.90;;;;;;5052480;28;20041;-78
2024/03/21 08:15:27;;;;;;;18.65;9.27;;;11.70;99.90;;;;;;5052895;28;20490;-78
2024/03/21 08:17:53;;;;;;;16.05;7.93;;;11.90;99.90;;;;;;5053245;28;20033;-78
2024/03/21 08:20:19;;;;;;;14.77;7.60;;;12.10;99.90;;;;;;5052344;28;20020;-78
2024/03/21 08:22:45;;;;;;;15.73;9.00;;;12.00;99.90;;;;;;5049545;28;20032;-79
2024/03/21 08:25:11;;;;;;;13.90;7.65;;;11.80;99.90;;;;;;5051850;28;20051;-79
2024/03/21 08:27:37;;;;;;;14.15;7.38;;;11.90;99.90;;;;;;5051455;28;20036;-79
2024/03/21 08:30:04;;;;;;;13.35;6.78;;;12.00;99.90;;;;;;5051862;28;20063;-79
2024/03/21 08:32:30;;;;;;;13.82;7.88;;;11.90;99.90;;;;;;5051735;28;20044;-78
2024/03/21 08:34:56;;;;;;;16.48;8.60;;;11.90;99.90;;;;;;5052793;28;20043;-80
2024/03/21 08:37:22;;;;;;;13.68;7.60;;;11.90;99.90;;;;;;5052251;28;20029;-80
2024/03/21 08:39:48;;;;;;;14.10;7.32;;;11.90;99.90;;;;;;5051877;28;20036;-79
2024/03/21 08:42:14;;;;;;;12.23;7.35;;;11.90;99.90;;;;;;5051053;28;20286;-78
2024/03/21 08:44:39;;;;;;;16.00;7.65;;;11.90;99.90;;;;;;5051017;28;20522;-78
2024/03/21 08:47:05;;;;;;;12.43;7.22;;;11.90;99.90;;;;;;5051032;28;20169;-79
2024/03/21 08:49:31;;;;;;;13.02;7.60;;;12.00;99.90;;;;;;5053002;28;20068;-78
2024/03/21 08:51:57;;;;;;;12.40;7.82;;;12.00;99.90;;;;;;5051709;28;20370;-79
2024/03/21 08:54:24;;;;;;;15.63;8.15;;;12.00;99.90;;;;;;5053076;28;20028;-80
2024/03/21 08:56:51;;;;;;;12.93;8.02;;;12.10;99.90;;;;;;5051729;28;20016;-79
2024/03/21 08:59:16;;;;;;;12.23;7.18;;;12.10;99.90;;;;;;5051530;28;20451;-80
2024/03/21 09:01:42;;;;;;;18.58;8.32;;;12.30;99.90;;;;;;5051209;28;20720;-79
2024/03/21 09:04:07;;;;;;;11.90;7.32;;;12.30;99.90;;;;;;5053549;28;20021;-79
2024/03/21 09:06:33;;;;;;;13.23;8.00;;;12.50;99.90;;;;;;5053399;28;20050;-79
2024/03/21 09:09:00;;;;;;;15.48;7.93;;;12.60;99.90;;;;;;5050263;28;20097;-81
2024/03/21 09:11:28;;;;;;;14.45;7.43;;;12.70;99.90;;;;;;5048289;28;20551;-81
2024/03/21 09:13:53;;;;;;;16.52;7.80;;;12.80;99.90;;;;;;5051307;28;20115;-80
2024/03/21 09:16:19;;;;;;;14.80;7.43;;;12.90;99.90;;;;;;5051061;28;20032;-81
2024/03/21 09:18:45;;;;;;;14.18;7.32;;;12.70;99.90;;;;;;5051674;28;20035;-81
2024/03/21 09:21:12;;;;;;;16.98;7.53;;;12.70;99.90;;;;;;5052497;28;20496;-81
2024/03/21 09:23:38;;;;;;;15.93;6.97;;;12.80;99.90;;;;;;5050093;28;20028;-81
2024/03/21 09:26:04;;;;;;;18.35;8.30;;;12.80;99.90;;;;;;5050676;28;20048;-81
2024/03/21 09:28:30;;;;;;;15.35;8.13;;;12.80;99.90;;;;;;5052369;28;20028;-81
2024/03/21 09:30:55;;;;;;;11.73;6.43;;;13.10;99.90;;;;;;5049301;28;20609;-81
2024/03/21 09:33:21;;;;;;;15.52;8.68;;;13.10;99.90;;;;;;5053021;28;20037;-80
2024/03/21 09:36:00;;;;;;;15.45;7.57;;;13.30;99.90;;;;;;5053159;28;20097;-80
2024/03/21 09:38:26;;;;;;;13.02;7.88;;;13.30;99.90;;;;;;5049550;28;20119;-81
2024/03/21 09:40:52;;;;;;;16.20;7.05;;;13.30;99.90;;;;;;5050382;28;20394;-81
2024/03/21 09:43:18;;;;;;;11.07;6.13;;;13.20;99.90;;;;;;5050368;28;20036;-81
2024/03/21 09:45:44;;;;;;;12.18;6.38;;;13.30;99.90;;;;;;5051632;28;20600;-82
2024/03/21 09:48:12;;;;;;;13.88;6.85;;;13.40;99.90;;;;;;5051541;28;20206;-81
2024/03/21 09:50:42;;;;;;;11.63;6.35;;;13.40;99.90;;;;;;5051990;28;20023;-81
2024/03/21 09:53:16;;;;;;;11.77;7.07;;;13.50;99.90;;;;;;5053546;28;20081;-81
2024/03/21 09:55:42;;;;;;;11.80;6.60;;;13.50;99.90;;;;;;5054434;28;20048;-81
2024/03/21 09:58:13;;;;;;;14.02;5.63;;;13.50;99.90;;;;;;5054040;28;20100;-81
2024/03/21 10:00:39;;;;;;;11.73;5.78;;;13.60;99.90;;;;;;5054901;28;20089;-81
2024/03/21 10:03:05;;;;;;;12.10;6.07;;;13.40;99.90;;;;;;5053705;28;20064;-81
2024/03/21 10:05:31;;;;;;;11.48;5.88;;;13.40;99.90;;;;;;5053974;28;20111;-81
2024/03/21 10:07:56;;;;;;;11.05;5.65;;;13.40;99.90;;;;;;5052956;28;20630;-80
2024/03/21 10:10:22;;;;;;;9.95;5.25;;;13.60;99.90;;;;;;5053456;28;20117;-80
2024/03/21 10:12:48;;;;;;;11.45;5.32;;;13.70;99.90;;;;;;5052683;28;20437;-80
2024/03/21 10:15:14;;;;;;;9.60;4.80;;;13.90;99.90;;;;;;5051892;28;21287;-80
2024/03/21 10:17:41;;;;;;;14.07;6.22;;;13.90;99.90;;;;;;5052823;28;20117;-80
2024/03/21 10:20:09;;;;;;;13.23;6.07;;;13.80;99.90;;;;;;5053343;28;20032;-80
2024/03/21 10:22:35;;;;;;;13.07;5.63;;;13.80;99.90;;;;;;5052661;28;20387;-81
2024/03/21 10:25:04;;;;;;;14.13;6.15;;;13.70;99.90;;;;;;5052131;28;20025;-80
2024/03/21 10:27:31;;;;;;;12.30;5.68;;;13.70;99.90;;;;;;5052031;28;20028;-80
2024/03/21 10:29:58;;;;;;;12.68;5.20;;;13.70;99.90;;;;;;5052977;28;20495;-80
2024/03/21 10:32:24;;;;;;;9.05;5.25;;;13.90;99.90;;;;;;5052788;28;20111;-80
2024/03/21 10:34:54;;;;;;;12.57;7.10;;;14.00;99.90;;;;;;5052377;28;20479;-80
2024/03/21 10:37:21;;;;;;;8.75;5.05;;;14.00;99.90;;;;;;5052873;28;20608;-80
2024/03/21 10:39:48;;;;;;;13.57;6.03;;;14.10;99.90;;;;;;5056710;28;20108;-80
2024/03/21 10:42:19;;;;;;;10.35;6.25;;;14.10;99.90;;;;;;5054020;28;20082;-80
2024/03/21 10:44:47;;;;;;;9.85;5.40;;;13.90;99.90;;;;;;5054037;28;20127;-80
2024/03/21 10:47:13;;;;;;;12.60;5.68;;;13.90;99.90;;;;;;5053619;28;20043;-80
2024/03/21 10:49:41;;;;;;;11.63;5.60;;;13.90;99.90;;;;;;5053343;28;20041;-80
2024/03/21 10:52:07;;;;;;;10.45;5.75;;;14.00;99.90;;;;;;5052058;28;20039;-80
2024/03/21 10:54:39;;;;;;;12.05;5.65;;;14.00;99.90;;;;;;5051854;28;20032;-80
2024/03/21 10:57:25;;;;;;;9.93;5.28;;;14.20;99.90;;;;;;5053033;28;20072;-80
2024/03/21 10:59:59;;;;;;;11.98;5.63;;;14.40;99.90;;;;;;5053445;28;20324;-80
2024/03/21 11:02:29;;;;;;;12.43;4.77;;;14.50;99.90;;;;;;5052286;28;20032;-80
2024/03/21 11:04:55;;;;;;;12.85;6.13;;;14.70;99.90;;;;;;5051354;28;20297;-80
2024/03/21 11:07:21;;;;;;;17.80;6.82;;;14.80;99.90;;;;;;5051232;28;20033;-80
2024/03/21 11:09:49;;;;;;;16.38;6.50;;;14.70;99.90;;;;;;5051070;28;20585;-81
2024/03/21 11:12:15;;;;;;;19.80;6.07;;;14.70;99.90;;;;;;5054185;28;20976;-80
2024/03/21 11:14:44;;;;;;;12.82;6.63;;;14.70;99.90;;;;;;5052702;28;20047;-80
2024/03/21 11:17:10;;;;;;;10.93;5.93;;;14.80;99.90;;;;;;5053321;28;20494;-80
2024/03/21 11:19:36;;;;;;;12.63;7.13;;;14.90;99.90;;;;;;5054225;28;20056;-80
2024/03/21 11:22:03;;;;;;;9.98;5.57;;;14.80;99.90;;;;;;5052857;28;20092;-80
2024/03/21 11:24:28;;;;;;;16.38;6.93;;;15.10;99.90;;;;;;5052468;28;20551;-80
2024/03/21 11:26:55;;;;;;;14.23;7.22;;;15.30;99.90;;;;;;5052420;28;20052;-80
2024/03/21 11:29:21;;;;;;;11.82;5.60;;;15.60;99.90;;;;;;5053384;28;20486;-80
2024/03/21 11:31:48;;;;;;;10.27;5.38;;;15.70;99.90;;;;;;5052538;28;20020;-80
2024/03/21 11:34:14;;;;;;;10.07;5.82;;;15.70;99.90;;;;;;5053678;28;20035;-80
2024/03/21 11:36:41;;;;;;;12.77;5.47;;;15.70;99.90;;;;;;5052819;28;20112;-80
2024/03/21 11:39:13;;;;;;;11.38;6.50;;;15.90;99.90;;;;;;5053016;28;20129;-80
2024/03/21 11:41:39;;;;;;;11.80;6.68;;;15.70;99.50;;;;;;5053131;28;20058;-80
2024/03/21 11:44:04;;;;;;;11.30;5.82;;;15.70;99.30;;;;;;5053980;28;20079;-80
2024/03/21 11:46:32;;;;;;;13.27;6.13;;;15.70;99.80;;;;;;5054269;28;20516;-79
2024/03/21 11:49:12;;;;;;;11.52;6.18;;;15.60;99.70;;;;;;5056092;28;20554;-80
2024/03/21 11:51:38;;;;;;;9.00;5.93;;;15.70;99.60;;;;;;5053690;28;20027;-81
2024/03/21 11:54:06;;;;;;;13.60;6.85;;;15.70;99.90;;;;;;5055376;28;20086;-80
2024/03/21 11:56:37;;;;;;;11.13;5.55;;;15.80;99.60;;;;;;5057313;28;20016;-82
2024/03/21 11:59:04;;;;;;;11.10;5.90;;;15.80;99.90;;;;;;5055392;28;20063;-79
2024/03/21 12:01:30;;;;;;;10.02;5.45;;;15.80;99.90;;;;;;5050723;28;20056;-80
2024/03/21 12:03:56;;;;;;;7.93;4.75;;;15.70;99.30;;;;;;5053023;28;20039;-80
2024/03/21 12:06:21;;;;;;;13.82;5.97;;;15.60;99.10;;;;;;5052648;28;20044;-81
2024/03/21 12:08:50;;;;;;;9.98;5.13;;;15.50;99.20;;;;;;5051541;28;20064;-82
2024/03/21 12:11:17;;;;;;;10.65;5.70;;;15.60;99.50;;;;;;5049376;28;20040;-80
2024/03/21 12:13:43;;;;;;;9.80;5.88;;;15.80;99.50;;;;;;5052750;28;20700;-81
2024/03/21 12:16:12;;;;;;;9.80;4.82;;;16.00;99.90;;;;;;5051637;28;20032;-83
2024/03/21 12:18:38;;;;;;;8.90;5.68;;;16.00;99.30;;;;;;5053673;28;20386;-81
2024/03/21 12:21:04;;;;;;;10.65;6.05;;;16.10;99.50;;;;;;5049893;28;20039;-81
2024/03/21 12:23:30;;;;;;;15.07;5.72;;;16.20;99.10;;;;;;5051328;28;20039;-81
2024/03/21 12:25:56;;;;;;;11.13;5.70;;;16.10;99.00;;;;;;5050246;28;20064;-81
2024/03/21 12:28:26;;;;;;;11.95;5.75;;;16.20;98.70;;;;;;5050645;28;20036;-82
2024/03/21 12:30:52;;;;;;;10.07;5.57;;;16.40;98.50;;;;;;5052842;28;20532;-82
2024/03/21 12:33:18;;;;;;;10.23;6.10;;;16.70;99.00;;;;;;5050883;28;20029;-81
2024/03/21 12:35:44;;;;;;;10.73;5.20;;;16.70;98.60;;;;;;5050587;28;20125;-80
2024/03/21 12:38:09;;;;;;;9.43;5.35;;;16.70;98.80;;;;;;5051593;28;20123;-79